LIPX METAR and TAF | Updated Today

LIPX METAR

Verona Villafranca Airport

Observation time: 8 min. ago

LIPX 060920Z VRB02KT CAVOK 07/M01 Q1009

Need help? Read our tutorial on how to read METARs or read the parsed version below.

Verona Villafranca Airport (LIPX) METAR

  • Weather conditions on Mon, 06 Dec 2021 09:20:00 +0000 (8 min. ago):
  • Present conditions: Dry
  • Clouds: Clear skies
  • Visibility: Greater than 10 km
  • Wind: Variable at 2 knots
  • Temperature: 7 celsius
  • Dew point: -1 celsius
  • Pressure: 1009 millibars
  • Remarks: None


Useful to know...

LIPX TAF

Verona Villafranca Airport

TAF LIPX 060500Z 0606/0706 VRB05KT 3000 BR SCT040 BECMG 0608/0610 9999
Observation time: 4:28 hr. ago
Need help? Read our tutorial on how to read TAFs or read the parsed version below.

Parsed version of TAF for Verona Villafranca Airport (LIPX)

  • From 06 December at 06:00 UTC, to day 07 of the month at 06:00 UTC
  • Clouds: Scattered at 1219 meters
  • Visibility: 3000 meters
  • Wind: Variable at 5
  • Other: Mist
  • Expected to arise soon, from 06 December at 08:00 UTC, to day 06 of the month at 10:00 UTC
  • Visibility: Greater than 10 km